sensor_id;sensor_type;location;lat;lon;timestamp;temperature;humidity
23597;DHT22;40226;50.874;4.394;2022-07-06T00:01:37;17.50;99.90
23597;DHT22;40226;50.874;4.394;2022-07-06T00:04:04;17.40;99.90
23597;DHT22;40226;50.874;4.394;2022-07-06T00:06:30;17.40;99.90
23597;DHT22;40226;50.874;4.394;2022-07-06T00:08:56;17.50;99.90
23597;DHT22;40226;50.874;4.394;2022-07-06T00:11:21;17.60;99.90
23597;DHT22;40226;50.874;4.394;2022-07-06T00:13:47;17.40;99.90
23597;DHT22;40226;50.874;4.394;2022-07-06T00:16:13;17.40;99.90
23597;DHT22;40226;50.874;4.394;2022-07-06T00:18:39;17.40;99.90
23597;DHT22;40226;50.874;4.394;2022-07-06T00:21:04;17.30;99.90
23597;DHT22;40226;50.874;4.394;2022-07-06T00:23:30;17.00;99.90
23597;DHT22;40226;50.874;4.394;2022-07-06T00:25:56;17.00;99.90
23597;DHT22;40226;50.874;4.394;2022-07-06T00:28:21;16.80;99.90
23597;DHT22;40226;50.874;4.394;2022-07-06T00:30:47;16.40;99.90
23597;DHT22;40226;50.874;4.394;2022-07-06T00:33:12;16.50;99.90
23597;DHT22;40226;50.874;4.394;2022-07-06T00:35:38;16.70;99.90
23597;DHT22;40226;50.874;4.394;2022-07-06T00:38:04;16.60;99.90
23597;DHT22;40226;50.874;4.394;2022-07-06T00:40:29;16.50;99.90
23597;DHT22;40226;50.874;4.394;2022-07-06T00:42:55;16.40;99.90
23597;DHT22;40226;50.874;4.394;2022-07-06T00:45:22;16.30;99.90
23597;DHT22;40226;50.874;4.394;2022-07-06T00:47:48;16.20;99.90
23597;DHT22;40226;50.874;4.394;2022-07-06T00:50:16;16.40;99.90
23597;DHT22;40226;50.874;4.394;2022-07-06T00:55:21;16.20;99.90
23597;DHT22;40226;50.874;4.394;2022-07-06T00:57:48;16.10;99.90
23597;DHT22;40226;50.874;4.394;2022-07-06T01:00:16;16.10;99.90
23597;DHT22;40226;50.874;4.394;2022-07-06T01:02:42;16.00;99.90
23597;DHT22;40226;50.874;4.394;2022-07-06T01:05:09;16.00;99.90
23597;DHT22;40226;50.874;4.394;2022-07-06T01:07:35;16.20;99.90
23597;DHT22;40226;50.874;4.394;2022-07-06T01:10:03;16.30;99.90
23597;DHT22;40226;50.874;4.394;2022-07-06T01:12:29;16.50;99.90
23597;DHT22;40226;50.874;4.394;2022-07-06T01:14:54;16.70;99.90
23597;DHT22;40226;50.874;4.394;2022-07-06T01:17:21;16.50;99.90
23597;DHT22;40226;50.874;4.394;2022-07-06T01:19:47;16.30;99.90
23597;DHT22;40226;50.874;4.394;2022-07-06T01:22:13;16.10;99.90
23597;DHT22;40226;50.874;4.394;2022-07-06T01:24:38;16.00;99.90
23597;DHT22;40226;50.874;4.394;2022-07-06T01:27:05;15.80;99.90
23597;DHT22;40226;50.874;4.394;2022-07-06T01:29:31;15.70;99.90
23597;DHT22;40226;50.874;4.394;2022-07-06T01:31:57;15.90;99.90
23597;DHT22;40226;50.874;4.394;2022-07-06T01:34:23;15.90;99.90
23597;DHT22;40226;50.874;4.394;2022-07-06T01:36:48;16.10;99.90
23597;DHT22;40226;50.874;4.394;2022-07-06T01:39:14;16.00;99.90
23597;DHT22;40226;50.874;4.394;2022-07-06T01:41:40;16.10;99.90
23597;DHT22;40226;50.874;4.394;2022-07-06T01:44:06;16.20;99.90
23597;DHT22;40226;50.874;4.394;2022-07-06T01:46:33;16.40;99.90
23597;DHT22;40226;50.874;4.394;2022-07-06T01:48:59;16.10;99.90
23597;DHT22;40226;50.874;4.394;2022-07-06T01:51:25;15.80;99.90
23597;DHT22;40226;50.874;4.394;2022-07-06T01:53:51;15.70;99.90
23597;DHT22;40226;50.874;4.394;2022-07-06T01:56:18;15.80;99.90
23597;DHT22;40226;50.874;4.394;2022-07-06T01:58:45;15.70;99.90
23597;DHT22;40226;50.874;4.394;2022-07-06T02:01:18;15.70;99.90
23597;DHT22;40226;50.874;4.394;2022-07-06T02:03:44;15.90;99.90
23597;DHT22;40226;50.874;4.394;2022-07-06T02:06:10;15.70;99.90
23597;DHT22;40226;50.874;4.394;2022-07-06T02:08:39;15.80;99.90
23597;DHT22;40226;50.874;4.394;2022-07-06T02:11:06;16.00;99.90
23597;DHT22;40226;50.874;4.394;2022-07-06T02:13:33;16.10;99.90
23597;DHT22;40226;50.874;4.394;2022-07-06T02:15:58;16.20;99.90
23597;DHT22;40226;50.874;4.394;2022-07-06T02:18:24;16.10;99.90
23597;DHT22;40226;50.874;4.394;2022-07-06T02:20:49;16.00;99.90
23597;DHT22;40226;50.874;4.394;2022-07-06T02:23:15;16.00;99.90
23597;DHT22;40226;50.874;4.394;2022-07-06T02:25:40;15.90;99.90
23597;DHT22;40226;50.874;4.394;2022-07-06T02:28:06;16.20;99.90
23597;DHT22;40226;50.874;4.394;2022-07-06T02:30:32;16.00;99.90
23597;DHT22;40226;50.874;4.394;2022-07-06T02:32:57;16.00;99.90
23597;DHT22;40226;50.874;4.394;2022-07-06T02:35:24;16.20;99.90
23597;DHT22;40226;50.874;4.394;2022-07-06T02:37:49;16.00;99.90
23597;DHT22;40226;50.874;4.394;2022-07-06T02:40:15;15.90;99.90
23597;DHT22;40226;50.874;4.394;2022-07-06T02:42:40;16.00;99.90
23597;DHT22;40226;50.874;4.394;2022-07-06T02:45:07;16.10;99.90
23597;DHT22;40226;50.874;4.394;2022-07-06T02:47:33;16.10;99.90
23597;DHT22;40226;50.874;4.394;2022-07-06T02:49:58;15.70;99.90
23597;DHT22;40226;50.874;4.394;2022-07-06T02:52:24;15.80;99.90
23597;DHT22;40226;50.874;4.394;2022-07-06T02:54:50;15.90;99.90
23597;DHT22;40226;50.874;4.394;2022-07-06T02:57:16;16.10;99.90
23597;DHT22;40226;50.874;4.394;2022-07-06T02:59:42;16.10;99.90
23597;DHT22;40226;50.874;4.394;2022-07-06T03:02:07;15.90;99.90
23597;DHT22;40226;50.874;4.394;2022-07-06T03:04:34;15.90;99.90
23597;DHT22;40226;50.874;4.394;2022-07-06T03:07:00;15.80;99.90
23597;DHT22;40226;50.874;4.394;2022-07-06T03:09:26;15.90;99.90
23597;DHT22;40226;50.874;4.394;2022-07-06T03:11:52;16.00;99.90
23597;DHT22;40226;50.874;4.394;2022-07-06T03:14:18;16.00;99.90
23597;DHT22;40226;50.874;4.394;2022-07-06T03:16:43;15.80;99.90
23597;DHT22;40226;50.874;4.394;2022-07-06T03:19:09;15.70;99.90
23597;DHT22;40226;50.874;4.394;2022-07-06T03:21:34;15.50;99.90
23597;DHT22;40226;50.874;4.394;2022-07-06T03:24:00;15.50;99.90
23597;DHT22;40226;50.874;4.394;2022-07-06T03:26:26;15.80;99.90
23597;DHT22;40226;50.874;4.394;2022-07-06T03:28:51;15.90;99.90
23597;DHT22;40226;50.874;4.394;2022-07-06T03:31:17;16.10;99.90
23597;DHT22;40226;50.874;4.394;2022-07-06T03:33:43;15.80;99.90
23597;DHT22;40226;50.874;4.394;2022-07-06T03:36:09;15.80;99.90
23597;DHT22;40226;50.874;4.394;2022-07-06T03:38:35;16.00;99.90
23597;DHT22;40226;50.874;4.394;2022-07-06T03:41:01;16.30;99.90
23597;DHT22;40226;50.874;4.394;2022-07-06T03:43:27;16.30;99.90
23597;DHT22;40226;50.874;4.394;2022-07-06T03:45:52;16.20;99.90
23597;DHT22;40226;50.874;4.394;2022-07-06T03:48:18;16.20;99.90
23597;DHT22;40226;50.874;4.394;2022-07-06T03:50:44;16.00;99.90
23597;DHT22;40226;50.874;4.394;2022-07-06T03:53:09;15.90;99.90
23597;DHT22;40226;50.874;4.394;2022-07-06T03:55:35;15.90;99.90
23597;DHT22;40226;50.874;4.394;2022-07-06T03:58:01;15.90;99.90
23597;DHT22;40226;50.874;4.394;2022-07-06T04:00:26;16.20;99.90
23597;DHT22;40226;50.874;4.394;2022-07-06T04:02:52;16.10;99.90
23597;DHT22;40226;50.874;4.394;2022-07-06T04:05:17;16.20;99.90
23597;DHT22;40226;50.874;4.394;2022-07-06T04:07:47;16.20;99.90
23597;DHT22;40226;50.874;4.394;2022-07-06T04:10:14;16.30;99.90
23597;DHT22;40226;50.874;4.394;2022-07-06T04:12:41;16.40;99.90
23597;DHT22;40226;50.874;4.394;2022-07-06T04:15:07;16.50;99.90
23597;DHT22;40226;50.874;4.394;2022-07-06T04:17:33;16.30;99.90
23597;DHT22;40226;50.874;4.394;2022-07-06T04:20:17;16.30;99.90
23597;DHT22;40226;50.874;4.394;2022-07-06T04:22:43;16.40;99.90
23597;DHT22;40226;50.874;4.394;2022-07-06T04:25:08;16.30;99.90
23597;DHT22;40226;50.874;4.394;2022-07-06T04:27:34;16.50;99.90
23597;DHT22;40226;50.874;4.394;2022-07-06T04:30:00;16.30;99.90
23597;DHT22;40226;50.874;4.394;2022-07-06T04:32:26;16.00;99.90
23597;DHT22;40226;50.874;4.394;2022-07-06T04:34:51;16.10;99.90
23597;DHT22;40226;50.874;4.394;2022-07-06T04:37:17;16.00;99.90
23597;DHT22;40226;50.874;4.394;2022-07-06T04:39:42;15.80;99.90
23597;DHT22;40226;50.874;4.394;2022-07-06T04:42:08;16.00;99.90
23597;DHT22;40226;50.874;4.394;2022-07-06T04:44:33;16.10;99.90
23597;DHT22;40226;50.874;4.394;2022-07-06T04:46:59;16.10;99.90
23597;DHT22;40226;50.874;4.394;2022-07-06T04:49:25;16.10;99.90
23597;DHT22;40226;50.874;4.394;2022-07-06T04:51:50;16.00;99.90
23597;DHT22;40226;50.874;4.394;2022-07-06T04:54:16;16.00;99.90
23597;DHT22;40226;50.874;4.394;2022-07-06T04:56:42;16.20;99.90
23597;DHT22;40226;50.874;4.394;2022-07-06T04:59:07;16.00;99.90
23597;DHT22;40226;50.874;4.394;2022-07-06T05:01:33;16.10;99.90
23597;DHT22;40226;50.874;4.394;2022-07-06T05:03:59;16.40;99.90
23597;DHT22;40226;50.874;4.394;2022-07-06T05:06:25;16.60;99.90
23597;DHT22;40226;50.874;4.394;2022-07-06T05:08:50;16.60;99.90
23597;DHT22;40226;50.874;4.394;2022-07-06T05:11:16;16.60;99.90
23597;DHT22;40226;50.874;4.394;2022-07-06T05:13:41;16.70;99.90
23597;DHT22;40226;50.874;4.394;2022-07-06T05:16:07;16.70;99.90
23597;DHT22;40226;50.874;4.394;2022-07-06T05:18:33;16.90;99.90
23597;DHT22;40226;50.874;4.394;2022-07-06T05:20:59;16.70;99.90
23597;DHT22;40226;50.874;4.394;2022-07-06T05:23:25;16.60;99.90
23597;DHT22;40226;50.874;4.394;2022-07-06T05:25:51;16.80;99.90
23597;DHT22;40226;50.874;4.394;2022-07-06T05:28:16;16.90;99.90
23597;DHT22;40226;50.874;4.394;2022-07-06T05:30:42;16.90;99.90
23597;DHT22;40226;50.874;4.394;2022-07-06T05:33:08;16.90;99.90
23597;DHT22;40226;50.874;4.394;2022-07-06T05:35:33;17.10;99.90
23597;DHT22;40226;50.874;4.394;2022-07-06T05:37:59;17.10;99.90
23597;DHT22;40226;50.874;4.394;2022-07-06T05:40:24;17.00;99.90
23597;DHT22;40226;50.874;4.394;2022-07-06T05:42:50;16.80;99.90
23597;DHT22;40226;50.874;4.394;2022-07-06T05:45:15;16.70;99.90
23597;DHT22;40226;50.874;4.394;2022-07-06T05:47:41;17.20;99.90
23597;DHT22;40226;50.874;4.394;2022-07-06T05:50:25;17.70;99.90
23597;DHT22;40226;50.874;4.394;2022-07-06T05:52:59;17.80;99.90
23597;DHT22;40226;50.874;4.394;2022-07-06T05:55:25;17.60;99.90
23597;DHT22;40226;50.874;4.394;2022-07-06T05:57:51;17.50;99.90
23597;DHT22;40226;50.874;4.394;2022-07-06T06:00:19;17.40;99.90
23597;DHT22;40226;50.874;4.394;2022-07-06T06:02:46;17.50;99.90
23597;DHT22;40226;50.874;4.394;2022-07-06T06:05:13;17.20;99.90
23597;DHT22;40226;50.874;4.394;2022-07-06T06:07:38;17.20;99.90
23597;DHT22;40226;50.874;4.394;2022-07-06T06:10:06;17.40;99.90
23597;DHT22;40226;50.874;4.394;2022-07-06T06:12:32;16.90;99.90
23597;DHT22;40226;50.874;4.394;2022-07-06T06:14:58;17.10;99.90
23597;DHT22;40226;50.874;4.394;2022-07-06T06:17:24;17.20;99.90
23597;DHT22;40226;50.874;4.394;2022-07-06T06:19:49;17.60;99.90
23597;DHT22;40226;50.874;4.394;2022-07-06T06:22:15;18.10;99.90
23597;DHT22;40226;50.874;4.394;2022-07-06T06:24:41;18.20;99.90
23597;DHT22;40226;50.874;4.394;2022-07-06T06:27:06;18.30;99.90
23597;DHT22;40226;50.874;4.394;2022-07-06T06:29:32;18.50;99.90
23597;DHT22;40226;50.874;4.394;2022-07-06T06:31:58;18.50;99.90
23597;DHT22;40226;50.874;4.394;2022-07-06T06:34:24;18.30;99.90
23597;DHT22;40226;50.874;4.394;2022-07-06T06:36:49;18.50;99.90
23597;DHT22;40226;50.874;4.394;2022-07-06T06:39:15;18.30;99.90
23597;DHT22;40226;50.874;4.394;2022-07-06T06:41:40;17.90;99.90
23597;DHT22;40226;50.874;4.394;2022-07-06T06:44:06;17.80;99.90
23597;DHT22;40226;50.874;4.394;2022-07-06T06:46:32;18.00;99.90
23597;DHT22;40226;50.874;4.394;2022-07-06T06:48:57;18.20;99.90
23597;DHT22;40226;50.874;4.394;2022-07-06T06:51:23;18.30;99.90
23597;DHT22;40226;50.874;4.394;2022-07-06T06:53:49;18.80;99.90
23597;DHT22;40226;50.874;4.394;2022-07-06T06:56:14;18.90;99.90
23597;DHT22;40226;50.874;4.394;2022-07-06T06:58:40;19.20;99.90
23597;DHT22;40226;50.874;4.394;2022-07-06T07:01:05;19.20;99.90
23597;DHT22;40226;50.874;4.394;2022-07-06T07:03:31;19.40;99.90
23597;DHT22;40226;50.874;4.394;2022-07-06T07:05:57;19.70;99.90
23597;DHT22;40226;50.874;4.394;2022-07-06T07:08:23;19.50;99.90
23597;DHT22;40226;50.874;4.394;2022-07-06T07:10:48;19.10;99.90
23597;DHT22;40226;50.874;4.394;2022-07-06T07:13:14;19.20;99.90
23597;DHT22;40226;50.874;4.394;2022-07-06T07:15:40;19.30;99.90
23597;DHT22;40226;50.874;4.394;2022-07-06T07:18:05;19.80;99.90
23597;DHT22;40226;50.874;4.394;2022-07-06T07:20:31;19.80;99.90
23597;DHT22;40226;50.874;4.394;2022-07-06T07:22:59;19.60;99.90
23597;DHT22;40226;50.874;4.394;2022-07-06T07:25:25;19.80;99.90
23597;DHT22;40226;50.874;4.394;2022-07-06T07:27:50;20.20;99.90
23597;DHT22;40226;50.874;4.394;2022-07-06T07:30:16;20.20;99.90
23597;DHT22;40226;50.874;4.394;2022-07-06T07:32:41;20.20;99.90
23597;DHT22;40226;50.874;4.394;2022-07-06T07:35:08;20.30;99.90
23597;DHT22;40226;50.874;4.394;2022-07-06T07:37:34;20.00;99.90
23597;DHT22;40226;50.874;4.394;2022-07-06T07:40:00;20.00;99.90
23597;DHT22;40226;50.874;4.394;2022-07-06T07:42:25;20.10;99.90
23597;DHT22;40226;50.874;4.394;2022-07-06T07:44:51;20.30;99.90
23597;DHT22;40226;50.874;4.394;2022-07-06T07:47:17;20.40;99.90
23597;DHT22;40226;50.874;4.394;2022-07-06T07:49:42;20.40;99.90
23597;DHT22;40226;50.874;4.394;2022-07-06T07:52:08;20.40;99.90
23597;DHT22;40226;50.874;4.394;2022-07-06T07:54:34;19.40;99.90
23597;DHT22;40226;50.874;4.394;2022-07-06T07:56:59;19.30;99.90
23597;DHT22;40226;50.874;4.394;2022-07-06T07:59:25;19.80;99.90
23597;DHT22;40226;50.874;4.394;2022-07-06T08:01:51;20.40;99.90
23597;DHT22;40226;50.874;4.394;2022-07-06T08:04:18;20.60;99.90
23597;DHT22;40226;50.874;4.394;2022-07-06T08:06:44;20.50;99.90
23597;DHT22;40226;50.874;4.394;2022-07-06T08:09:09;20.40;99.90
23597;DHT22;40226;50.874;4.394;2022-07-06T08:11:35;20.40;99.90
23597;DHT22;40226;50.874;4.394;2022-07-06T08:14:02;20.30;99.90
23597;DHT22;40226;50.874;4.394;2022-07-06T08:16:28;20.40;99.90
23597;DHT22;40226;50.874;4.394;2022-07-06T08:18:54;20.50;99.90
23597;DHT22;40226;50.874;4.394;2022-07-06T08:21:20;20.70;99.90
23597;DHT22;40226;50.874;4.394;2022-07-06T08:23:45;21.00;99.90
23597;DHT22;40226;50.874;4.394;2022-07-06T08:26:11;20.70;99.90
23597;DHT22;40226;50.874;4.394;2022-07-06T08:28:37;20.70;99.90
23597;DHT22;40226;50.874;4.394;2022-07-06T08:31:02;20.70;99.90
23597;DHT22;40226;50.874;4.394;2022-07-06T08:33:28;20.80;99.90
23597;DHT22;40226;50.874;4.394;2022-07-06T08:35:54;20.80;99.90
23597;DHT22;40226;50.874;4.394;2022-07-06T08:38:19;21.00;99.90
23597;DHT22;40226;50.874;4.394;2022-07-06T08:40:47;21.40;99.90
23597;DHT22;40226;50.874;4.394;2022-07-06T08:43:14;21.50;99.90
23597;DHT22;40226;50.874;4.394;2022-07-06T08:45:41;21.60;99.90
23597;DHT22;40226;50.874;4.394;2022-07-06T08:48:09;21.00;99.90
23597;DHT22;40226;50.874;4.394;2022-07-06T08:50:35;20.50;99.90
23597;DHT22;40226;50.874;4.394;2022-07-06T08:53:01;20.70;99.90
23597;DHT22;40226;50.874;4.394;2022-07-06T08:55:28;20.90;99.90
23597;DHT22;40226;50.874;4.394;2022-07-06T08:57:57;21.20;99.90
23597;DHT22;40226;50.874;4.394;2022-07-06T09:00:24;21.50;99.90
23597;DHT22;40226;50.874;4.394;2022-07-06T09:02:50;21.60;99.90
23597;DHT22;40226;50.874;4.394;2022-07-06T09:05:16;22.10;99.90
23597;DHT22;40226;50.874;4.394;2022-07-06T09:07:44;22.10;99.90
23597;DHT22;40226;50.874;4.394;2022-07-06T09:10:11;22.10;99.90
23597;DHT22;40226;50.874;4.394;2022-07-06T09:12:37;22.10;99.90
23597;DHT22;40226;50.874;4.394;2022-07-06T09:15:03;22.40;99.90
23597;DHT22;40226;50.874;4.394;2022-07-06T09:17:29;22.70;99.90
23597;DHT22;40226;50.874;4.394;2022-07-06T09:19:56;23.30;99.90
23597;DHT22;40226;50.874;4.394;2022-07-06T09:24:51;23.40;99.90
23597;DHT22;40226;50.874;4.394;2022-07-06T09:27:17;22.70;99.90
23597;DHT22;40226;50.874;4.394;2022-07-06T09:29:43;23.00;99.90
23597;DHT22;40226;50.874;4.394;2022-07-06T09:32:10;23.40;99.90
23597;DHT22;40226;50.874;4.394;2022-07-06T09:34:44;23.10;99.90
23597;DHT22;40226;50.874;4.394;2022-07-06T09:37:10;23.00;99.90
23597;DHT22;40226;50.874;4.394;2022-07-06T09:39:36;23.30;99.90
23597;DHT22;40226;50.874;4.394;2022-07-06T09:42:03;23.70;99.90
23597;DHT22;40226;50.874;4.394;2022-07-06T09:44:31;24.00;99.90
23597;DHT22;40226;50.874;4.394;2022-07-06T09:47:03;23.90;99.90
23597;DHT22;40226;50.874;4.394;2022-07-06T09:49:29;24.00;99.90
23597;DHT22;40226;50.874;4.394;2022-07-06T09:51:57;24.00;99.90
23597;DHT22;40226;50.874;4.394;2022-07-06T09:54:23;23.00;99.90
23597;DHT22;40226;50.874;4.394;2022-07-06T09:56:50;23.30;99.90
23597;DHT22;40226;50.874;4.394;2022-07-06T09:59:18;23.80;99.90
23597;DHT22;40226;50.874;4.394;2022-07-06T10:01:44;24.00;99.90
23597;DHT22;40226;50.874;4.394;2022-07-06T10:04:11;24.10;99.90
23597;DHT22;40226;50.874;4.394;2022-07-06T10:06:44;24.10;99.90
23597;DHT22;40226;50.874;4.394;2022-07-06T10:09:10;23.60;99.90
23597;DHT22;40226;50.874;4.394;2022-07-06T10:11:46;23.40;99.90
23597;DHT22;40226;50.874;4.394;2022-07-06T10:14:17;23.50;99.90
23597;DHT22;40226;50.874;4.394;2022-07-06T10:16:43;23.60;99.90
23597;DHT22;40226;50.874;4.394;2022-07-06T10:19:10;23.30;99.90
23597;DHT22;40226;50.874;4.394;2022-07-06T10:21:37;23.50;99.90
23597;DHT22;40226;50.874;4.394;2022-07-06T10:24:07;23.80;99.90
23597;DHT22;40226;50.874;4.394;2022-07-06T10:26:34;23.90;99.90
23597;DHT22;40226;50.874;4.394;2022-07-06T10:29:00;23.70;99.90
23597;DHT22;40226;50.874;4.394;2022-07-06T10:31:27;23.80;99.90
23597;DHT22;40226;50.874;4.394;2022-07-06T10:33:57;24.30;99.90
23597;DHT22;40226;50.874;4.394;2022-07-06T10:36:24;24.50;99.90
23597;DHT22;40226;50.874;4.394;2022-07-06T10:38:51;24.70;99.90
23597;DHT22;40226;50.874;4.394;2022-07-06T10:41:16;25.00;99.90
23597;DHT22;40226;50.874;4.394;2022-07-06T10:43:44;24.60;99.90
23597;DHT22;40226;50.874;4.394;2022-07-06T10:46:14;24.60;99.90
23597;DHT22;40226;50.874;4.394;2022-07-06T10:48:44;24.70;99.90
23597;DHT22;40226;50.874;4.394;2022-07-06T10:51:11;24.50;99.90
23597;DHT22;40226;50.874;4.394;2022-07-06T10:53:39;24.40;99.90
23597;DHT22;40226;50.874;4.394;2022-07-06T10:56:07;24.30;99.90
23597;DHT22;40226;50.874;4.394;2022-07-06T11:01:11;24.50;99.90
23597;DHT22;40226;50.874;4.394;2022-07-06T11:04:16;24.70;99.90
23597;DHT22;40226;50.874;4.394;2022-07-06T11:06:37;25.00;99.90
23597;DHT22;40226;50.874;4.394;2022-07-06T11:09:08;25.30;99.90
23597;DHT22;40226;50.874;4.394;2022-07-06T11:14:12;25.00;99.90
23597;DHT22;40226;50.874;4.394;2022-07-06T11:16:59;25.50;99.90
23597;DHT22;40226;50.874;4.394;2022-07-06T11:19:27;25.90;99.90
23597;DHT22;40226;50.874;4.394;2022-07-06T11:21:55;26.70;99.90
23597;DHT22;40226;50.874;4.394;2022-07-06T11:24:27;25.70;99.90
23597;DHT22;40226;50.874;4.394;2022-07-06T11:26:54;25.80;99.90
23597;DHT22;40226;50.874;4.394;2022-07-06T11:29:22;25.20;99.90
23597;DHT22;40226;50.874;4.394;2022-07-06T11:31:49;24.90;99.90
23597;DHT22;40226;50.874;4.394;2022-07-06T11:36:45;25.40;99.90
23597;DHT22;40226;50.874;4.394;2022-07-06T11:39:10;26.30;99.90
23597;DHT22;40226;50.874;4.394;2022-07-06T11:41:37;26.50;99.80
23597;DHT22;40226;50.874;4.394;2022-07-06T11:44:03;27.70;98.60
23597;DHT22;40226;50.874;4.394;2022-07-06T11:46:33;28.40;97.60
23597;DHT22;40226;50.874;4.394;2022-07-06T11:49:05;29.00;95.60
23597;DHT22;40226;50.874;4.394;2022-07-06T11:51:34;29.60;94.40
23597;DHT22;40226;50.874;4.394;2022-07-06T11:54:06;29.90;94.20
23597;DHT22;40226;50.874;4.394;2022-07-06T11:56:33;30.90;92.90
23597;DHT22;40226;50.874;4.394;2022-07-06T11:59:00;30.70;91.50
23597;DHT22;40226;50.874;4.394;2022-07-06T12:01:27;30.20;90.30
23597;DHT22;40226;50.874;4.394;2022-07-06T12:04:00;29.40;90.30
23597;DHT22;40226;50.874;4.394;2022-07-06T12:06:27;28.50;91.30
23597;DHT22;40226;50.874;4.394;2022-07-06T12:08:55;27.70;92.30
23597;DHT22;40226;50.874;4.394;2022-07-06T12:11:28;27.20;92.50
23597;DHT22;40226;50.874;4.394;2022-07-06T12:13:56;26.20;93.30
23597;DHT22;40226;50.874;4.394;2022-07-06T12:16:31;25.60;94.60
23597;DHT22;40226;50.874;4.394;2022-07-06T12:19:00;25.30;94.90
23597;DHT22;40226;50.874;4.394;2022-07-06T12:21:26;24.90;95.10
23597;DHT22;40226;50.874;4.394;2022-07-06T12:23:52;25.10;95.20
23597;DHT22;40226;50.874;4.394;2022-07-06T12:26:20;26.60;93.80
23597;DHT22;40226;50.874;4.394;2022-07-06T12:29:02;28.40;91.90
23597;DHT22;40226;50.874;4.394;2022-07-06T12:31:34;29.20;90.30
23597;DHT22;40226;50.874;4.394;2022-07-06T12:34:01;28.70;90.30
23597;DHT22;40226;50.874;4.394;2022-07-06T12:36:26;28.60;90.90
23597;DHT22;40226;50.874;4.394;2022-07-06T12:38:52;28.50;90.50
23597;DHT22;40226;50.874;4.394;2022-07-06T12:41:32;27.60;91.30
23597;DHT22;40226;50.874;4.394;2022-07-06T12:44:08;28.20;91.00
23597;DHT22;40226;50.874;4.394;2022-07-06T12:46:38;28.30;91.10
23597;DHT22;40226;50.874;4.394;2022-07-06T12:49:13;27.70;91.30
23597;DHT22;40226;50.874;4.394;2022-07-06T12:51:49;28.90;90.20
23597;DHT22;40226;50.874;4.394;2022-07-06T12:54:16;30.30;89.60
23597;DHT22;40226;50.874;4.394;2022-07-06T12:59:24;30.80;82.40
23597;DHT22;40226;50.874;4.394;2022-07-06T13:01:51;30.70;84.90
23597;DHT22;40226;50.874;4.394;2022-07-06T13:04:17;30.90;81.30
23597;DHT22;40226;50.874;4.394;2022-07-06T13:06:42;31.40;80.70
23597;DHT22;40226;50.874;4.394;2022-07-06T13:09:08;32.30;78.20
23597;DHT22;40226;50.874;4.394;2022-07-06T13:11:33;32.40;75.80
23597;DHT22;40226;50.874;4.394;2022-07-06T13:13:59;31.90;76.20
23597;DHT22;40226;50.874;4.394;2022-07-06T13:16:25;30.40;79.60
23597;DHT22;40226;50.874;4.394;2022-07-06T13:18:56;29.70;80.80
23597;DHT22;40226;50.874;4.394;2022-07-06T13:21:21;28.80;82.70
23597;DHT22;40226;50.874;4.394;2022-07-06T13:23:47;27.80;85.40
23597;DHT22;40226;50.874;4.394;2022-07-06T13:26:13;27.50;86.40
23597;DHT22;40226;50.874;4.394;2022-07-06T13:28:39;27.40;86.50
23597;DHT22;40226;50.874;4.394;2022-07-06T13:31:05;27.60;84.30
23597;DHT22;40226;50.874;4.394;2022-07-06T13:33:30;27.80;85.10
23597;DHT22;40226;50.874;4.394;2022-07-06T13:35:56;28.30;84.90
23597;DHT22;40226;50.874;4.394;2022-07-06T13:38:21;28.70;84.80
23597;DHT22;40226;50.874;4.394;2022-07-06T13:40:47;29.90;82.80
23597;DHT22;40226;50.874;4.394;2022-07-06T13:43:13;30.90;81.50
23597;DHT22;40226;50.874;4.394;2022-07-06T13:45:38;31.30;79.60
23597;DHT22;40226;50.874;4.394;2022-07-06T13:48:04;29.00;81.10
23597;DHT22;40226;50.874;4.394;2022-07-06T13:50:29;27.70;84.30
23597;DHT22;40226;50.874;4.394;2022-07-06T13:52:58;28.30;84.80
23597;DHT22;40226;50.874;4.394;2022-07-06T13:55:23;28.80;83.40
23597;DHT22;40226;50.874;4.394;2022-07-06T13:57:49;28.70;84.30
23597;DHT22;40226;50.874;4.394;2022-07-06T14:00:15;29.90;82.90
23597;DHT22;40226;50.874;4.394;2022-07-06T14:02:46;30.90;79.50
23597;DHT22;40226;50.874;4.394;2022-07-06T14:05:11;32.60;76.70
23597;DHT22;40226;50.874;4.394;2022-07-06T14:07:37;32.70;75.70
23597;DHT22;40226;50.874;4.394;2022-07-06T14:10:03;32.70;74.40
23597;DHT22;40226;50.874;4.394;2022-07-06T14:12:29;33.20;72.60
23597;DHT22;40226;50.874;4.394;2022-07-06T14:14:55;33.40;70.30
23597;DHT22;40226;50.874;4.394;2022-07-06T14:17:20;31.30;74.20
23597;DHT22;40226;50.874;4.394;2022-07-06T14:19:47;30.40;75.40
23597;DHT22;40226;50.874;4.394;2022-07-06T14:22:13;30.60;76.20
23597;DHT22;40226;50.874;4.394;2022-07-06T14:24:38;30.90;75.90
23597;DHT22;40226;50.874;4.394;2022-07-06T14:27:04;31.80;74.70
23597;DHT22;40226;50.874;4.394;2022-07-06T14:29:30;31.30;73.80
23597;DHT22;40226;50.874;4.394;2022-07-06T14:31:55;30.10;77.20
23597;DHT22;40226;50.874;4.394;2022-07-06T14:34:21;29.10;79.20
23597;DHT22;40226;50.874;4.394;2022-07-06T14:36:46;28.70;80.60
23597;DHT22;40226;50.874;4.394;2022-07-06T14:39:12;29.20;79.70
23597;DHT22;40226;50.874;4.394;2022-07-06T14:41:38;28.90;80.70
23597;DHT22;40226;50.874;4.394;2022-07-06T14:44:04;29.00;80.20
23597;DHT22;40226;50.874;4.394;2022-07-06T14:46:31;29.40;79.30
23597;DHT22;40226;50.874;4.394;2022-07-06T14:48:57;30.50;78.20
23597;DHT22;40226;50.874;4.394;2022-07-06T14:51:23;31.40;76.70
23597;DHT22;40226;50.874;4.394;2022-07-06T14:53:48;31.00;75.80
23597;DHT22;40226;50.874;4.394;2022-07-06T14:56:14;30.90;77.80
23597;DHT22;40226;50.874;4.394;2022-07-06T14:58:39;31.20;76.10
23597;DHT22;40226;50.874;4.394;2022-07-06T15:01:05;30.40;77.60
23597;DHT22;40226;50.874;4.394;2022-07-06T15:03:31;31.30;75.70
23597;DHT22;40226;50.874;4.394;2022-07-06T15:05:56;31.30;75.40
23597;DHT22;40226;50.874;4.394;2022-07-06T15:08:22;32.60;74.50
23597;DHT22;40226;50.874;4.394;2022-07-06T15:10:48;35.10;69.80
23597;DHT22;40226;50.874;4.394;2022-07-06T15:13:14;36.20;66.70
23597;DHT22;40226;50.874;4.394;2022-07-06T15:15:40;37.70;63.50
23597;DHT22;40226;50.874;4.394;2022-07-06T15:18:06;35.60;64.00
23597;DHT22;40226;50.874;4.394;2022-07-06T15:20:32;34.30;67.00
23597;DHT22;40226;50.874;4.394;2022-07-06T15:22:59;34.90;65.50
23597;DHT22;40226;50.874;4.394;2022-07-06T15:25:24;35.00;64.90
23597;DHT22;40226;50.874;4.394;2022-07-06T15:27:51;34.30;64.80
23597;DHT22;40226;50.874;4.394;2022-07-06T15:30:18;32.90;66.70
23597;DHT22;40226;50.874;4.394;2022-07-06T15:32:43;32.20;68.20
23597;DHT22;40226;50.874;4.394;2022-07-06T15:35:09;31.00;70.50
23597;DHT22;40226;50.874;4.394;2022-07-06T15:37:35;30.10;72.20
23597;DHT22;40226;50.874;4.394;2022-07-06T15:42:53;28.80;76.20
23597;DHT22;40226;50.874;4.394;2022-07-06T15:45:19;28.20;77.20